createdAt,value
2023-05-02T00:00:10.884Z,94.0692
2023-05-02T00:01:12.871Z,94.1383
2023-05-02T00:02:15.022Z,94.2883
2023-05-02T00:03:17.503Z,94.4305
2023-05-02T00:04:19.790Z,94.5706
2023-05-02T00:05:22.228Z,94.7107
2023-05-02T00:06:24.284Z,94.7461
2023-05-02T00:07:26.283Z,94.7082
2023-05-02T00:08:28.319Z,94.7048
2023-05-02T00:09:30.349Z,94.8033
2023-05-02T00:10:32.357Z,94.9696
2023-05-02T00:11:34.395Z,95.1158
2023-05-02T00:12:36.425Z,95.2324
2023-05-02T00:13:38.468Z,95.4120
2023-05-02T00:14:40.477Z,95.5682
2023-05-02T00:15:42.480Z,95.6529
2023-05-02T00:16:44.518Z,95.7142
2023-05-02T00:17:46.535Z,95.7477
2023-05-02T00:18:48.537Z,95.8440
2023-05-02T00:19:50.587Z,95.9473
2023-05-02T00:20:52.608Z,96.0560
2023-05-02T00:21:54.631Z,96.1666
2023-05-02T00:22:56.681Z,96.2647
2023-05-02T00:23:58.707Z,96.3299
2023-05-02T00:25:00.755Z,96.4068
2023-05-02T00:26:02.793Z,96.4319
2023-05-02T00:27:04.829Z,96.4895
2023-05-02T00:28:06.869Z,96.5784
2023-05-02T00:29:08.906Z,96.6078
2023-05-02T00:30:11.710Z,96.6467
2023-05-02T00:31:13.805Z,96.6912
2023-05-02T00:32:15.787Z,96.7387
2023-05-02T00:33:17.841Z,96.7865
2023-05-02T00:34:19.854Z,96.7870
2023-05-02T00:35:21.875Z,96.7235
2023-05-02T00:36:23.895Z,96.8018
2023-05-02T00:37:25.912Z,96.8666
2023-05-02T00:38:27.987Z,96.8748
2023-05-02T00:39:30.048Z,96.8905
2023-05-02T00:40:32.092Z,96.8004
2023-05-02T00:41:34.126Z,96.7431
2023-05-02T00:42:36.456Z,96.7621
2023-05-02T00:43:38.650Z,96.8224
2023-05-02T00:44:40.710Z,96.8070
2023-05-02T00:45:42.763Z,96.7552
2023-05-02T00:46:44.841Z,96.7103
2023-05-02T00:47:46.889Z,96.6571
2023-05-02T00:48:48.933Z,96.6500
2023-05-02T00:49:50.956Z,96.7046
2023-05-02T00:50:52.978Z,96.7618
2023-05-02T00:51:55.052Z,96.7970
2023-05-02T00:52:57.045Z,96.7128
2023-05-02T00:53:59.063Z,96.6322
2023-05-02T00:55:01.099Z,96.5493
2023-05-02T00:56:03.132Z,96.5270
2023-05-02T00:57:05.183Z,96.5113
2023-05-02T00:58:07.231Z,96.5147
2023-05-02T00:59:09.267Z,96.5302
2023-05-02T01:00:11.350Z,96.5402
2023-05-02T01:01:13.413Z,96.5403
2023-05-02T01:02:15.472Z,96.5173
2023-05-02T01:03:17.721Z,96.5051
2023-05-02T01:04:19.875Z,96.5020
2023-05-02T01:05:21.887Z,96.4978
2023-05-02T01:06:23.940Z,96.5509
2023-05-02T01:07:25.954Z,96.5822
2023-05-02T01:08:27.976Z,96.5925
2023-05-02T01:09:30.000Z,96.6182
2023-05-02T01:10:32.050Z,96.6529
2023-05-02T01:11:34.087Z,96.6994
2023-05-02T01:12:36.122Z,96.7263
2023-05-02T01:13:38.181Z,96.6006
2023-05-02T01:14:40.278Z,96.5216
2023-05-02T01:15:42.390Z,96.5157
2023-05-02T01:16:44.656Z,96.4809
2023-05-02T01:17:46.913Z,96.5166
2023-05-02T01:18:48.964Z,96.6061
2023-05-02T01:19:51.090Z,96.6915
2023-05-02T01:20:53.136Z,96.7640
2023-05-02T01:21:55.114Z,96.8373
2023-05-02T01:22:57.155Z,96.9188
2023-05-02T01:23:59.187Z,97.0310
2023-05-02T01:25:01.555Z,97.1160
2023-05-02T01:26:03.583Z,97.1610
2023-05-02T01:27:05.635Z,97.1490
2023-05-02T01:28:07.697Z,97.1521
2023-05-02T01:29:09.746Z,97.1608
2023-05-02T01:30:11.761Z,97.2113
2023-05-02T01:31:13.807Z,97.2813
2023-05-02T01:32:15.820Z,97.3259
2023-05-02T01:33:17.879Z,97.2905
2023-05-02T01:34:19.927Z,97.2618
2023-05-02T01:35:21.975Z,97.2778
2023-05-02T01:36:23.982Z,97.3193
2023-05-02T01:37:26.002Z,97.3263
2023-05-02T01:38:28.010Z,97.3295
2023-05-02T01:39:30.053Z,97.3503
2023-05-02T01:40:32.126Z,97.3742
2023-05-02T01:41:34.167Z,97.4149
2023-05-02T01:42:36.910Z,97.4466
2023-05-02T01:43:38.972Z,97.4633
2023-05-02T01:44:40.994Z,97.4587
2023-05-02T01:45:43.001Z,97.4640
2023-05-02T01:46:45.060Z,97.4701
2023-05-02T01:47:47.140Z,97.4455
2023-05-02T01:48:49.143Z,97.4387
2023-05-02T01:49:51.158Z,97.4123
2023-05-02T01:50:53.245Z,97.3641
2023-05-02T01:51:55.239Z,97.3702
2023-05-02T01:52:57.260Z,97.2930
2023-05-02T01:53:59.307Z,97.2411
2023-05-02T01:55:01.336Z,97.2077
2023-05-02T01:56:03.381Z,97.1921
2023-05-02T01:57:05.406Z,97.2693
2023-05-02T01:58:07.438Z,97.3533
2023-05-02T01:59:09.441Z,97.4278
2023-05-02T02:00:11.470Z,97.4998
2023-05-02T02:01:13.517Z,97.5592
2023-05-02T02:02:15.531Z,97.6039
2023-05-02T02:03:17.635Z,97.6271
2023-05-02T02:04:19.752Z,97.6383
2023-05-02T02:05:21.602Z,97.6800
2023-05-02T02:06:23.672Z,97.7128
2023-05-02T02:07:25.715Z,97.7564
2023-05-02T02:08:27.672Z,97.7872
2023-05-02T02:09:29.704Z,97.8364
2023-05-02T02:10:31.725Z,97.8687
2023-05-02T02:11:33.716Z,97.9118
2023-05-02T02:12:36.072Z,97.9759
2023-05-02T02:13:38.106Z,98.0311
2023-05-02T02:14:40.134Z,98.0539
2023-05-02T02:15:42.165Z,98.1086
2023-05-02T02:16:44.246Z,98.0753
2023-05-02T02:17:46.428Z,97.9533
2023-05-02T02:18:48.468Z,97.8713
2023-05-02T02:19:50.530Z,97.7620
2023-05-02T02:20:52.552Z,97.5906
2023-05-02T02:21:54.601Z,97.4340
2023-05-02T02:22:56.630Z,97.3145
2023-05-02T02:23:58.661Z,97.3416
2023-05-02T02:25:00.705Z,97.1498
2023-05-02T02:26:02.785Z,97.0162
2023-05-02T02:27:04.843Z,96.9228
2023-05-02T02:28:06.871Z,96.8445
2023-05-02T02:29:08.865Z,96.7451
2023-05-02T02:30:11.238Z,96.7224
2023-05-02T02:31:13.331Z,96.6983
2023-05-02T02:32:15.359Z,96.7725
2023-05-02T02:33:17.376Z,96.8024
2023-05-02T02:34:19.440Z,96.9337
2023-05-02T02:35:21.693Z,97.0362
2023-05-02T02:36:23.708Z,97.0666
2023-05-02T02:37:25.752Z,97.1025
2023-05-02T02:38:27.761Z,96.9916
2023-05-02T02:39:29.790Z,96.9017
2023-05-02T02:40:31.845Z,96.8194
2023-05-02T02:41:33.880Z,96.6961
2023-05-02T02:42:35.926Z,96.6226
2023-05-02T02:43:37.931Z,96.5000
2023-05-02T02:44:40.213Z,96.4505
2023-05-02T02:45:42.242Z,96.5106
2023-05-02T02:46:44.359Z,96.4770
2023-05-02T02:47:46.430Z,96.2898
2023-05-02T02:48:48.396Z,96.1039
2023-05-02T02:49:50.444Z,96.1066
2023-05-02T02:50:52.444Z,96.1097
2023-05-02T02:51:54.451Z,96.0130
2023-05-02T02:52:56.536Z,95.6659
2023-05-02T02:53:58.568Z,95.6495
2023-05-02T02:55:00.628Z,95.6199
2023-05-02T02:56:02.617Z,95.1843
2023-05-02T02:57:04.652Z,94.9564
2023-05-02T02:58:06.664Z,94.8472
2023-05-02T02:59:08.702Z,94.9949
2023-05-02T03:00:10.738Z,94.8989
2023-05-02T03:01:12.766Z,94.8051
2023-05-02T03:02:14.772Z,94.8574
2023-05-02T03:03:16.885Z,94.6630
2023-05-02T03:04:18.940Z,94.5354
2023-05-02T03:05:19.070Z,94.5311
2023-05-02T03:06:21.227Z,94.6159
2023-05-02T03:07:23.268Z,94.5378
2023-05-02T03:08:25.302Z,94.5859
2023-05-02T03:09:27.371Z,94.3453
2023-05-02T03:10:29.367Z,94.2840
2023-05-02T03:11:31.394Z,94.1092
2023-05-02T03:12:33.429Z,93.5619
2023-05-02T03:13:35.421Z,93.8072
2023-05-02T03:14:37.455Z,94.2736
2023-05-02T03:15:40.005Z,94.4983
2023-05-02T03:16:42.115Z,94.5660
2023-05-02T03:17:44.361Z,94.6145
2023-05-02T03:18:46.383Z,94.4421
2023-05-02T03:19:48.518Z,94.4902
2023-05-02T03:20:50.513Z,94.4137
2023-05-02T03:21:52.551Z,94.0860
2023-05-02T03:22:54.607Z,93.9214
2023-05-02T03:23:56.629Z,93.9035
2023-05-02T03:24:58.661Z,94.0684
2023-05-02T03:26:00.654Z,94.1067
2023-05-02T03:27:02.658Z,93.7628
2023-05-02T03:28:04.718Z,93.7922
2023-05-02T03:29:06.734Z,93.8440
2023-05-02T03:30:08.751Z,93.6554
2023-05-02T03:31:10.787Z,93.6305
2023-05-02T03:32:13.136Z,93.6698
2023-05-02T03:33:15.426Z,93.7588
2023-05-02T03:34:17.411Z,93.5012
2023-05-02T03:35:19.672Z,93.3110
2023-05-02T03:36:21.691Z,93.4625
2023-05-02T03:37:23.740Z,93.3722
2023-05-02T03:38:25.776Z,93.3904
2023-05-02T03:39:27.799Z,93.2453
2023-05-02T03:40:29.829Z,93.2213
2023-05-02T03:41:31.913Z,93.1138
2023-05-02T03:42:33.958Z,93.0572
2023-05-02T03:43:36.045Z,92.9751
2023-05-02T03:44:38.025Z,92.8256
2023-05-02T03:45:40.041Z,92.8414
2023-05-02T03:46:42.098Z,92.9125
2023-05-02T03:47:44.434Z,92.9781
2023-05-02T03:48:46.451Z,92.5783
2023-05-02T03:49:48.505Z,92.5842
2023-05-02T03:50:50.548Z,93.0019
2023-05-02T03:51:52.571Z,93.0851
2023-05-02T03:52:54.666Z,93.0573
2023-05-02T03:53:56.707Z,93.0680
2023-05-02T03:54:58.757Z,93.1609
2023-05-02T03:56:00.797Z,93.1708
2023-05-02T03:57:02.841Z,93.2407
2023-05-02T03:58:04.873Z,93.3499
2023-05-02T03:59:06.906Z,93.2444
2023-05-02T04:00:07.062Z,93.1846
2023-05-02T04:01:09.085Z,93.3096
2023-05-02T04:02:11.152Z,93.4568
2023-05-02T04:03:13.263Z,93.3124
2023-05-02T04:04:15.310Z,93.1119
2023-05-02T04:05:17.344Z,93.2139
2023-05-02T04:06:19.441Z,93.2392
2023-05-02T04:07:21.459Z,93.3655
2023-05-02T04:08:23.471Z,93.4998
2023-05-02T04:09:25.645Z,93.7767
2023-05-02T04:10:27.720Z,93.8728
2023-05-02T04:11:29.751Z,93.9345
2023-05-02T04:12:31.835Z,93.9918
2023-05-02T04:13:33.856Z,94.1974
2023-05-02T04:14:35.881Z,94.2065
2023-05-02T04:15:37.931Z,94.1164
2023-05-02T04:16:39.960Z,94.0593
2023-05-02T04:17:42.009Z,94.0242
2023-05-02T04:18:44.035Z,93.9879
2023-05-02T04:19:46.116Z,93.8665
2023-05-02T04:20:48.148Z,93.8166
2023-05-02T04:21:50.212Z,93.8306
2023-05-02T04:22:50.413Z,93.8252
2023-05-02T04:23:52.443Z,93.8433
2023-05-02T04:24:54.505Z,93.9231
2023-05-02T04:25:56.540Z,93.9507
2023-05-02T04:26:58.590Z,93.8121
2023-05-02T04:28:00.606Z,93.4682
2023-05-02T04:29:02.630Z,93.2164
2023-05-02T04:30:04.667Z,93.1351
2023-05-02T04:31:06.740Z,93.1414
2023-05-02T04:32:08.732Z,93.0929
2023-05-02T04:33:10.832Z,92.9190
2023-05-02T04:34:12.822Z,92.6211
2023-05-02T04:35:14.852Z,92.6554
2023-05-02T04:36:16.880Z,92.9806
2023-05-02T04:37:18.948Z,93.1860
2023-05-02T04:38:21.048Z,93.3493
2023-05-02T04:39:23.158Z,93.5671
2023-05-02T04:40:25.171Z,93.8470
2023-05-02T04:41:27.206Z,94.0706
2023-05-02T04:42:29.219Z,93.9641
2023-05-02T04:43:31.249Z,93.7868
2023-05-02T04:44:33.273Z,93.8310
2023-05-02T04:45:35.299Z,93.7665
2023-05-02T04:46:37.384Z,93.8062
2023-05-02T04:47:39.469Z,93.9866
2023-05-02T04:48:41.491Z,94.1415
2023-05-02T04:49:43.518Z,94.2666
2023-05-02T04:50:45.583Z,94.2146
2023-05-02T04:51:47.579Z,94.1811
2023-05-02T04:52:49.614Z,93.9802
2023-05-02T04:53:51.712Z,93.7753
2023-05-02T04:54:53.778Z,93.7794
2023-05-02T04:55:55.884Z,93.4399
2023-05-02T04:56:57.898Z,93.2195
2023-05-02T04:57:59.933Z,93.1822
2023-05-02T04:59:02.004Z,93.1806
2023-05-02T05:00:04.289Z,93.2581
2023-05-02T05:01:06.288Z,93.3952
2023-05-02T05:02:08.481Z,93.4376
2023-05-02T05:03:10.740Z,93.5169
2023-05-02T05:04:12.841Z,93.5045
2023-05-02T05:05:14.980Z,93.5876
2023-05-02T05:06:17.090Z,93.6968
2023-05-02T05:07:19.098Z,93.5877
2023-05-02T05:08:21.131Z,93.5335
2023-05-02T05:09:23.169Z,93.7991
2023-05-02T05:10:25.215Z,94.0905
2023-05-02T05:11:27.257Z,94.5388
2023-05-02T05:12:29.284Z,94.6944
2023-05-02T05:13:31.324Z,94.3881
2023-05-02T05:14:33.354Z,94.2401
2023-05-02T05:15:35.451Z,94.0040
2023-05-02T05:16:37.561Z,93.8275
2023-05-02T05:17:39.737Z,93.4938
2023-05-02T05:18:41.752Z,93.1049
2023-05-02T05:19:43.774Z,92.9244
2023-05-02T05:20:46.119Z,92.6691
2023-05-02T05:21:48.378Z,92.4214
2023-05-02T05:22:50.460Z,92.1538
2023-05-02T05:23:52.480Z,91.9047
2023-05-02T05:24:54.504Z,91.7551
2023-05-02T05:25:56.530Z,91.8497
2023-05-02T05:26:58.560Z,92.3695
2023-05-02T05:28:00.604Z,92.7591
2023-05-02T05:29:02.659Z,93.0043
2023-05-02T05:30:04.707Z,93.3864
2023-05-02T05:31:06.780Z,93.6659
2023-05-02T05:32:08.812Z,93.8172
2023-05-02T05:33:11.266Z,93.8448
2023-05-02T05:34:13.371Z,93.7751
2023-05-02T05:35:15.429Z,93.6717
2023-05-02T05:36:17.484Z,93.6300
2023-05-02T05:37:19.563Z,93.5173
2023-05-02T05:38:21.612Z,93.5078
2023-05-02T05:39:23.664Z,93.6359
2023-05-02T05:40:25.715Z,93.5647
2023-05-02T05:41:27.769Z,93.5115
2023-05-02T05:42:29.834Z,93.7561
2023-05-02T05:43:31.906Z,93.7331
2023-05-02T05:44:33.989Z,93.6969
2023-05-02T05:45:36.084Z,93.7662
2023-05-02T05:46:38.249Z,93.7926
2023-05-02T05:47:40.432Z,93.7688
2023-05-02T05:48:42.597Z,93.5424
2023-05-02T05:49:44.638Z,93.3201
2023-05-02T05:50:46.715Z,93.0497
2023-05-02T05:51:48.795Z,92.8429
2023-05-02T05:52:50.867Z,92.7976
2023-05-02T05:53:52.943Z,92.9023
2023-05-02T05:54:55.029Z,93.2312
2023-05-02T05:55:57.095Z,93.4300
2023-05-02T05:56:59.177Z,93.3039
2023-05-02T05:58:01.253Z,93.3791
2023-05-02T05:59:03.341Z,93.3117
2023-05-02T06:00:05.455Z,92.9862
2023-05-02T06:01:07.770Z,92.7014
2023-05-02T06:02:09.864Z,92.6722
2023-05-02T06:03:12.326Z,92.7048
2023-05-02T06:04:14.553Z,92.6080
2023-05-02T06:05:16.641Z,92.2098
2023-05-02T06:06:18.701Z,91.9334
2023-05-02T06:07:20.762Z,91.7332
2023-05-02T06:08:23.132Z,91.3093
2023-05-02T06:09:25.181Z,91.3134
2023-05-02T06:10:27.234Z,91.5508
2023-05-02T06:11:29.329Z,91.6747
2023-05-02T06:12:31.365Z,91.5864
2023-05-02T06:13:33.418Z,91.2830
2023-05-02T06:14:35.569Z,90.9344
2023-05-02T06:15:37.662Z,90.6311
2023-05-02T06:16:39.773Z,90.6047
2023-05-02T06:17:41.798Z,90.2414
2023-05-02T06:18:43.860Z,89.8102
2023-05-02T06:19:45.914Z,89.9098
2023-05-02T06:20:47.973Z,89.9728
2023-05-02T06:21:50.035Z,89.3650
2023-05-02T06:22:52.119Z,89.1961
2023-05-02T06:23:54.246Z,89.0184
2023-05-02T06:24:56.284Z,88.3540
2023-05-02T06:25:58.356Z,87.8940
2023-05-02T06:27:00.428Z,88.0829
2023-05-02T06:28:02.487Z,88.0770
2023-05-02T06:29:04.553Z,87.2240
2023-05-02T06:30:06.672Z,86.0104
2023-05-02T06:31:08.758Z,86.9402
2023-05-02T06:32:10.848Z,87.6075
2023-05-02T06:33:12.951Z,87.4585
2023-05-02T06:34:15.030Z,87.9365
2023-05-02T06:35:17.110Z,88.7506
2023-05-02T06:36:19.194Z,88.9102
2023-05-02T06:37:21.243Z,88.7528
2023-05-02T06:38:23.320Z,88.2517
2023-05-02T06:39:25.397Z,88.4115
2023-05-02T06:40:27.536Z,88.6911
2023-05-02T06:41:29.608Z,88.8047
2023-05-02T06:42:31.665Z,88.3209
2023-05-02T06:43:33.732Z,88.0703
2023-05-02T06:44:35.794Z,87.2155
2023-05-02T06:45:37.865Z,86.6435
2023-05-02T06:46:39.987Z,85.9888
2023-05-02T06:47:42.114Z,84.8447
2023-05-02T06:48:44.137Z,84.0998
2023-05-02T06:49:46.216Z,83.5750
2023-05-02T06:50:48.327Z,83.0081
2023-05-02T06:51:50.402Z,82.2537
2023-05-02T06:52:52.460Z,81.2725
2023-05-02T06:53:54.552Z,81.2880
2023-05-02T06:54:56.598Z,81.1646
2023-05-02T06:55:58.700Z,82.0443
2023-05-02T06:57:00.761Z,82.4562
2023-05-02T06:58:02.807Z,82.5500
2023-05-02T06:59:04.858Z,83.2928
2023-05-02T07:00:06.980Z,83.0624
2023-05-02T07:01:09.190Z,81.7437
2023-05-02T07:02:11.274Z,80.7901
2023-05-02T07:03:13.383Z,80.9000
2023-05-02T07:04:15.484Z,82.9023
2023-05-02T07:05:17.552Z,82.9008
2023-05-02T07:06:19.648Z,82.1758
2023-05-02T07:07:21.732Z,82.7542
2023-05-02T07:08:23.858Z,82.0911
2023-05-02T07:09:25.982Z,82.1393
2023-05-02T07:10:28.038Z,81.4348
2023-05-02T07:11:30.060Z,81.0808
2023-05-02T07:12:32.170Z,81.0341
2023-05-02T07:13:34.205Z,80.6539
2023-05-02T07:14:36.263Z,80.8677
2023-05-02T07:15:38.331Z,81.6226
2023-05-02T07:16:40.514Z,81.6776
2023-05-02T07:17:42.644Z,82.4213
2023-05-02T07:18:44.701Z,83.0451
2023-05-02T07:19:46.770Z,82.8597
2023-05-02T07:20:48.834Z,82.7973
2023-05-02T07:21:50.894Z,82.7582
2023-05-02T07:22:52.927Z,82.5592
2023-05-02T07:23:54.975Z,82.9298
2023-05-02T07:24:57.178Z,83.5221
2023-05-02T07:25:59.219Z,84.0644
2023-05-02T07:27:01.706Z,83.0390
2023-05-02T07:28:03.803Z,82.2888
2023-05-02T07:29:05.888Z,80.8394
2023-05-02T07:30:08.098Z,78.9964
2023-05-02T07:31:10.183Z,78.9217
2023-05-02T07:32:12.284Z,78.3000
2023-05-02T07:33:14.331Z,79.5585
2023-05-02T07:34:16.503Z,80.1999
2023-05-02T07:35:18.555Z,79.6862
2023-05-02T07:36:20.595Z,76.6631
2023-05-02T07:37:22.705Z,76.2468
2023-05-02T07:38:24.796Z,76.9141
2023-05-02T07:39:26.832Z,77.3272
2023-05-02T07:40:28.900Z,77.4162
2023-05-02T07:41:30.958Z,76.7093
2023-05-02T07:42:33.038Z,76.9740
2023-05-02T07:43:35.100Z,76.5832
2023-05-02T07:44:37.181Z,77.0344
2023-05-02T07:45:39.243Z,78.9005
2023-05-02T07:46:41.410Z,79.0501
2023-05-02T07:47:43.579Z,78.2000
2023-05-02T07:48:45.700Z,76.5963
2023-05-02T07:49:47.759Z,78.8905
2023-05-02T07:50:49.856Z,80.9172
2023-05-02T07:51:51.919Z,80.4960
2023-05-02T07:52:54.016Z,80.6034
2023-05-02T07:53:56.097Z,81.7032
2023-05-02T07:54:58.178Z,81.9488
2023-05-02T07:56:00.261Z,82.0842
2023-05-02T07:57:02.409Z,81.6718
2023-05-02T07:58:04.479Z,80.5246
2023-05-02T07:59:06.522Z,79.8721
2023-05-02T08:00:10.240Z,80.7874
2023-05-02T08:01:16.701Z,79.4539
2023-05-02T08:02:18.843Z,77.9389
2023-05-02T08:03:20.997Z,77.6520
2023-05-02T08:04:23.356Z,77.6889
2023-05-02T08:05:25.450Z,77.5017
2023-05-02T08:06:27.536Z,77.5457
2023-05-02T08:07:29.638Z,77.8294
2023-05-02T08:08:31.733Z,79.0214
2023-05-02T08:09:33.805Z,79.0966
2023-05-02T08:10:35.898Z,80.2469
2023-05-02T08:11:37.989Z,79.8803
2023-05-02T08:12:40.105Z,78.1318
2023-05-02T08:13:42.171Z,77.2713
2023-05-02T08:14:44.252Z,77.9315
2023-05-02T08:15:46.399Z,78.1257
2023-05-02T08:16:48.541Z,78.3058
2023-05-02T08:17:50.906Z,78.7980
2023-05-02T08:18:52.985Z,78.7883
2023-05-02T08:19:55.076Z,78.1426
2023-05-02T08:20:57.137Z,76.7354
2023-05-02T08:21:59.265Z,76.0944
2023-05-02T08:23:01.615Z,75.4012
2023-05-02T08:25:04.262Z,73.7605
2023-05-02T08:26:06.351Z,72.0400
2023-05-02T08:27:08.424Z,72.4690
2023-05-02T08:28:10.522Z,71.9282
2023-05-02T08:29:12.637Z,72.4714
2023-05-02T08:30:14.784Z,73.0027
2023-05-02T08:31:16.938Z,73.1583
2023-05-02T08:32:18.964Z,73.1624
2023-05-02T08:33:21.127Z,73.8019
2023-05-02T08:34:23.158Z,72.9625
2023-05-02T08:35:25.241Z,73.8908
2023-05-02T08:36:27.294Z,74.8222
2023-05-02T08:37:29.384Z,74.0980
2023-05-02T08:38:31.449Z,73.4538
2023-05-02T08:39:33.501Z,72.6886
2023-05-02T08:40:42.174Z,72.0109
2023-05-02T08:41:36.283Z,71.6217
2023-05-02T08:42:38.362Z,70.9422
2023-05-02T08:43:40.440Z,68.9782
2023-05-02T08:44:42.521Z,68.4853
2023-05-02T08:45:44.717Z,68.6241
2023-05-02T08:46:46.852Z,68.4747
2023-05-02T08:47:49.258Z,68.1495
2023-05-02T08:48:51.326Z,68.2279
2023-05-02T08:49:53.479Z,69.2142
2023-05-02T08:50:55.544Z,70.3572
2023-05-02T08:51:57.663Z,70.2327
2023-05-02T08:52:59.736Z,69.4701
2023-05-02T08:54:01.794Z,67.9636
2023-05-02T08:55:04.065Z,67.9766
2023-05-02T08:56:06.452Z,68.9973
2023-05-02T08:57:08.766Z,67.5339
2023-05-02T08:58:10.867Z,64.2921
2023-05-02T08:59:12.972Z,61.9626
2023-05-02T09:00:15.063Z,63.1576
2023-05-02T09:01:17.188Z,65.5938
2023-05-02T09:02:19.261Z,66.5666
2023-05-02T09:03:23.376Z,65.6387
2023-05-02T09:04:22.240Z,64.3301
2023-05-02T09:05:24.339Z,61.1325
2023-05-02T09:06:26.480Z,58.7405
2023-05-02T09:07:28.566Z,62.2582
2023-05-02T09:08:30.632Z,61.1811
2023-05-02T09:09:39.778Z,59.0189
2023-05-02T09:10:34.553Z,59.4364
2023-05-02T09:11:36.391Z,59.6615
2023-05-02T09:12:38.443Z,61.8667
2023-05-02T09:13:40.524Z,62.9805
2023-05-02T09:15:45.938Z,63.8808
2023-05-02T09:16:48.067Z,61.5007
2023-05-02T09:17:50.137Z,62.0280
2023-05-02T09:18:52.180Z,60.7802
2023-05-02T09:19:54.181Z,61.6060
2023-05-02T09:20:56.238Z,62.2248
2023-05-02T09:21:58.314Z,62.2038
2023-05-02T09:23:03.875Z,60.8815
2023-05-02T09:24:05.934Z,58.5447
2023-05-02T09:25:08.099Z,57.6512
2023-05-02T09:26:10.168Z,59.2950
2023-05-02T09:27:12.284Z,58.9536
2023-05-02T09:28:14.309Z,58.6283
2023-05-02T09:29:23.894Z,57.4044
2023-05-02T09:30:25.983Z,57.0509
2023-05-02T09:31:49.792Z,55.6363
2023-05-02T09:32:34.384Z,57.2493
2023-05-02T09:33:36.571Z,57.1547
2023-05-02T09:34:38.620Z,55.3396
2023-05-02T09:35:40.719Z,52.3454
2023-05-02T09:36:42.792Z,52.2186
2023-05-02T09:37:44.854Z,53.5710
2023-05-02T09:38:46.932Z,54.4487
2023-05-02T09:39:48.915Z,58.7819
2023-05-02T09:40:50.959Z,61.8613
2023-05-02T09:41:53.031Z,62.2128
2023-05-02T09:42:54.939Z,60.2020
2023-05-02T09:43:57.023Z,60.7416
2023-05-02T09:44:59.276Z,61.8270
2023-05-02T09:46:01.652Z,61.7306
2023-05-02T09:47:03.695Z,62.0748
2023-05-02T09:48:05.837Z,61.0697
2023-05-02T09:49:07.883Z,61.4551
2023-05-02T09:50:09.939Z,58.3117
2023-05-02T09:51:12.030Z,59.4737
2023-05-02T09:52:14.131Z,58.9692
2023-05-02T09:53:16.275Z,56.3154
2023-05-02T09:54:18.361Z,54.5394
2023-05-02T09:55:20.716Z,54.7145
2023-05-02T09:56:23.966Z,52.4563
2023-05-02T09:57:23.243Z,54.4933
2023-05-02T09:58:25.371Z,57.3472
2023-05-02T09:59:27.451Z,56.3542
2023-05-02T10:00:29.540Z,55.3927
2023-05-02T10:01:31.634Z,53.4237
2023-05-02T10:03:33.825Z,52.1829
2023-05-02T10:04:36.011Z,50.3412
2023-05-02T10:05:38.096Z,48.8711
2023-05-02T10:06:40.303Z,49.2836
2023-05-02T10:07:42.401Z,50.4713
2023-05-02T10:08:44.467Z,52.3823
2023-05-02T10:09:46.605Z,54.5791
2023-05-02T10:10:48.959Z,52.5516
2023-05-02T10:11:51.032Z,51.1201
2023-05-02T10:12:53.132Z,48.7050
2023-05-02T10:14:58.904Z,53.3609
2023-05-02T10:16:01.039Z,55.4439
2023-05-02T10:17:03.164Z,58.2061
2023-05-02T10:19:08.523Z,59.6075
2023-05-02T10:20:10.595Z,55.5400
2023-05-02T10:21:12.639Z,58.7488
2023-05-02T10:22:14.721Z,59.4208
2023-05-02T10:23:16.865Z,59.1063
2023-05-02T10:24:18.930Z,59.1160
2023-05-02T10:25:21.002Z,59.1476
2023-05-02T10:26:23.098Z,60.8056
2023-05-02T10:27:25.155Z,60.0052
2023-05-02T10:28:27.252Z,59.9941
2023-05-02T10:29:29.311Z,61.6219
2023-05-02T10:30:30.275Z,62.3597
2023-05-02T10:31:32.412Z,62.3567
2023-05-02T10:32:34.888Z,62.7378
2023-05-02T10:33:36.957Z,62.5660
2023-05-02T10:34:39.104Z,60.5655
2023-05-02T10:35:39.467Z,60.8201
2023-05-02T10:37:45.048Z,62.1265
2023-05-02T10:38:47.060Z,62.9954
2023-05-02T10:39:49.144Z,61.8437
2023-05-02T10:40:51.171Z,61.5042
2023-05-02T10:41:53.235Z,61.5666
2023-05-02T10:42:55.299Z,61.0240
2023-05-02T10:43:57.132Z,61.3286
2023-05-02T10:44:59.467Z,61.0887
2023-05-02T10:46:01.657Z,61.7245
2023-05-02T10:47:03.790Z,63.0269
2023-05-02T10:48:04.390Z,61.6915
2023-05-02T10:49:06.463Z,62.6142
2023-05-02T10:50:08.589Z,62.7625
2023-05-02T10:51:10.640Z,62.5969
2023-05-02T10:52:12.743Z,63.3478
2023-05-02T10:53:14.806Z,63.5333
2023-05-02T10:54:16.781Z,64.1076
2023-05-02T10:55:18.841Z,65.4178
2023-05-02T10:56:20.892Z,65.8332
2023-05-02T10:57:22.989Z,64.0712
2023-05-02T10:58:25.098Z,63.8616
2023-05-02T10:59:27.146Z,63.7663
2023-05-02T11:00:27.205Z,64.6274
2023-05-02T11:01:29.440Z,63.8710
2023-05-02T11:02:31.751Z,63.7543
2023-05-02T11:03:33.909Z,64.6134
2023-05-02T11:04:35.778Z,64.2222
2023-05-02T11:05:37.840Z,62.7308
2023-05-02T11:06:40.238Z,62.7114
2023-05-02T11:07:42.274Z,63.4203
2023-05-02T11:08:44.350Z,62.5255
2023-05-02T11:09:46.671Z,62.2032
2023-05-02T11:10:48.749Z,63.4580
2023-05-02T11:11:58.325Z,64.0999
2023-05-02T11:12:53.458Z,64.6235
2023-05-02T11:13:55.523Z,64.9247
2023-05-02T11:14:57.640Z,63.8846
2023-05-02T11:16:00.232Z,62.5452
2023-05-02T11:17:02.287Z,62.0111
2023-05-02T11:18:12.124Z,61.8811
2023-05-02T11:19:06.956Z,59.6660
2023-05-02T11:20:09.048Z,59.8655
2023-05-02T11:21:11.115Z,60.5927
2023-05-02T11:22:13.248Z,62.2583
2023-05-02T11:23:15.279Z,61.0938
2023-05-02T11:24:17.382Z,60.0028
2023-05-02T11:25:19.465Z,59.2186
2023-05-02T11:26:21.557Z,59.7737
2023-05-02T11:27:23.655Z,60.4131
2023-05-02T11:28:25.731Z,59.4952
2023-05-02T11:29:27.828Z,58.8772
2023-05-02T11:30:29.972Z,60.0640
2023-05-02T11:31:32.092Z,59.7329
2023-05-02T11:32:34.419Z,59.7946
2023-05-02T11:33:36.509Z,59.2360
2023-05-02T11:34:38.598Z,61.4389
2023-05-02T11:35:44.563Z,61.8104
2023-05-02T11:36:54.309Z,60.5341
2023-05-02T11:37:56.386Z,59.0531
2023-05-02T11:38:58.488Z,58.4161
2023-05-02T11:40:00.588Z,60.3788
2023-05-02T11:41:02.689Z,59.2474
2023-05-02T11:42:04.774Z,56.2744
2023-05-02T11:43:06.810Z,54.5207
2023-05-02T11:44:08.951Z,54.9602
2023-05-02T11:45:11.010Z,57.5649
2023-05-02T11:46:13.108Z,57.4636
2023-05-02T11:47:15.143Z,55.5385
2023-05-02T11:48:17.249Z,52.4068
2023-05-02T11:49:19.326Z,52.6924
2023-05-02T11:50:21.420Z,51.2516
2023-05-02T11:51:23.509Z,50.5472
2023-05-02T11:52:26.242Z,48.3203
2023-05-02T11:53:28.283Z,48.0349
2023-05-02T11:54:30.618Z,48.7829
2023-05-02T11:55:36.608Z,49.4840
2023-05-02T11:56:38.679Z,52.1072
2023-05-02T11:58:40.997Z,52.2767
2023-05-02T12:00:43.600Z,56.6607
2023-05-02T12:01:45.678Z,55.9829
2023-05-02T12:02:47.812Z,54.9168
2023-05-02T12:03:50.007Z,54.0931
2023-05-02T12:04:52.127Z,53.9882
2023-05-02T12:05:54.287Z,54.3260
2023-05-02T12:06:56.445Z,53.7254
2023-05-02T12:07:58.585Z,52.6504
2023-05-02T12:09:00.682Z,53.0363
2023-05-02T12:10:03.069Z,53.4050
2023-05-02T12:11:05.192Z,54.2030
2023-05-02T12:13:10.168Z,54.5999
2023-05-02T12:14:10.288Z,51.2063
2023-05-02T12:15:12.449Z,50.7996
2023-05-02T12:16:14.671Z,49.8069
2023-05-02T12:17:16.838Z,49.4190
2023-05-02T12:18:20.760Z,54.2132
2023-05-02T12:19:20.486Z,53.5881
2023-05-02T12:20:22.609Z,53.7704
2023-05-02T12:21:24.726Z,52.9528
2023-05-02T12:22:26.857Z,54.0715
2023-05-02T12:23:28.956Z,54.8603
2023-05-02T12:24:31.100Z,54.6070
2023-05-02T12:25:33.194Z,55.9733
2023-05-02T12:26:35.313Z,59.6951
2023-05-02T12:27:57.419Z,62.5054
2023-05-02T12:28:52.267Z,68.0433
2023-05-02T12:29:54.378Z,70.3301
2023-05-02T12:30:56.511Z,72.8383
2023-05-02T12:31:58.725Z,74.0285
2023-05-02T12:33:00.898Z,73.7122
2023-05-02T12:34:03.009Z,74.2077
2023-05-02T12:35:05.120Z,75.0909
2023-05-02T12:36:07.200Z,76.1650
2023-05-02T12:37:09.363Z,76.3231
2023-05-02T12:38:11.844Z,76.9173
2023-05-02T12:39:13.725Z,78.2049
2023-05-02T12:40:15.829Z,78.0170